createdAt,value
2022-07-29T00:04:06.406Z,80.05
2022-07-29T00:09:08.232Z,80.28
2022-07-29T00:14:09.712Z,81.03
2022-07-29T00:19:10.859Z,81.21
2022-07-29T00:24:12.495Z,80.84
2022-07-29T00:34:53.525Z,81.40
2022-07-29T00:39:55.502Z,81.56
2022-07-29T00:44:56.668Z,81.75
2022-07-29T00:49:57.734Z,82.17
2022-07-29T00:54:59.089Z,82.38
2022-07-29T01:00:00.521Z,82.70
2022-07-29T01:05:04.002Z,82.73
2022-07-29T01:10:08.104Z,82.77
2022-07-29T01:15:09.626Z,82.76
2022-07-29T01:20:18.026Z,82.24
2022-07-29T01:25:46.565Z,82.03
2022-07-29T01:30:53.053Z,82.21
2022-07-29T01:35:54.478Z,82.58
2022-07-29T01:41:10.035Z,81.89
2022-07-29T01:46:21.580Z,82.25
2022-07-29T01:51:36.177Z,82.93
2022-07-29T01:56:39.180Z,82.99
2022-07-29T02:01:43.101Z,83.24
2022-07-29T02:06:45.169Z,82.73
2022-07-29T02:11:51.117Z,82.72
2022-07-29T02:16:54.495Z,82.81
2022-07-29T02:21:57.889Z,82.71
2022-07-29T02:27:01.032Z,83.03
2022-07-29T02:32:04.014Z,83.04
2022-07-29T02:37:05.576Z,82.78
2022-07-29T02:42:10.192Z,82.80
2022-07-29T02:47:19.392Z,82.69
2022-07-29T02:52:40.126Z,82.37
2022-07-29T02:57:53.882Z,82.13
2022-07-29T03:02:59.838Z,81.94
2022-07-29T03:08:10.750Z,82.14
2022-07-29T03:13:13.399Z,82.52
2022-07-29T03:18:15.688Z,82.55
2022-07-29T03:23:22.947Z,82.36
2022-07-29T03:28:27.439Z,81.80
2022-07-29T03:33:30.486Z,81.45
2022-07-29T03:38:35.989Z,81.09
2022-07-29T03:43:49.089Z,80.54
2022-07-29T03:48:56.479Z,80.04
2022-07-29T03:53:58.694Z,79.44
2022-07-29T03:59:02.409Z,79.11
2022-07-29T04:04:04.936Z,79.03
2022-07-29T04:09:06.297Z,78.55
2022-07-29T04:14:11.154Z,77.73
2022-07-29T04:19:12.331Z,77.02
2022-07-29T04:24:13.920Z,76.50
2022-07-29T04:29:15.485Z,75.97
2022-07-29T04:34:17.175Z,75.41
2022-07-29T04:39:22.807Z,74.92
2022-07-29T04:44:28.574Z,75.20
2022-07-29T04:49:30.308Z,75.49
2022-07-29T04:54:31.498Z,75.98
2022-07-29T04:59:32.602Z,76.65
2022-07-29T05:04:33.723Z,76.95
2022-07-29T05:09:34.868Z,77.29
2022-07-29T05:14:36.259Z,77.38
2022-07-29T05:19:39.352Z,72.36
2022-07-29T05:24:41.040Z,62.27
2022-07-29T05:29:42.984Z,53.14
2022-07-29T05:34:51.146Z,43.28
2022-07-29T05:39:56.523Z,38.47
2022-07-29T05:44:58.499Z,33.43
2022-07-29T05:49:59.710Z,30.67
2022-07-29T05:55:04.433Z,28.16
2022-07-29T06:00:06.602Z,27.79
2022-07-29T06:05:07.908Z,28.04
2022-07-29T06:10:14.235Z,27.38
2022-07-29T06:15:15.772Z,26.58
2022-07-29T06:20:16.880Z,25.75
2022-07-29T06:25:18.467Z,25.40
2022-07-29T06:30:19.733Z,24.31
2022-07-29T06:35:38.948Z,24.29
2022-07-29T06:41:03.061Z,24.75
2022-07-29T06:46:07.753Z,25.14
2022-07-29T06:51:10.401Z,24.35
2022-07-29T06:56:14.058Z,23.89
2022-07-29T07:01:15.645Z,23.54
2022-07-29T07:06:16.912Z,23.75
2022-07-29T07:11:18.097Z,23.25
2022-07-29T07:16:19.388Z,22.58
2022-07-29T07:21:20.715Z,21.32
2022-07-29T07:26:21.948Z,21.13
2022-07-29T07:31:23.182Z,20.29
2022-07-29T07:36:24.610Z,20.25
2022-07-29T07:41:25.842Z,20.55
2022-07-29T07:46:27.176Z,19.90
2022-07-29T07:51:28.484Z,20.64
2022-07-29T07:56:34.881Z,20.91
2022-07-29T08:01:55.116Z,21.92
2022-07-29T08:06:58.495Z,22.24
2022-07-29T08:11:59.671Z,22.51
2022-07-29T08:17:01.022Z,21.16
2022-07-29T08:22:02.511Z,21.29
2022-07-29T08:27:03.686Z,21.83
2022-07-29T08:32:05.579Z,22.48
2022-07-29T08:37:06.708Z,23.49
2022-07-29T08:42:07.931Z,24.24
2022-07-29T08:47:09.214Z,25.26
2022-07-29T08:52:11.667Z,26.17
2022-07-29T08:57:16.760Z,25.77
2022-07-29T09:02:21.156Z,26.35
2022-07-29T09:07:22.296Z,27.07
2022-07-29T09:12:28.719Z,28.08
2022-07-29T09:17:49.758Z,27.99
2022-07-29T09:22:53.753Z,28.68
2022-07-29T09:27:54.886Z,28.81
2022-07-29T09:33:00.231Z,28.85
2022-07-29T09:38:14.033Z,29.14
2022-07-29T09:43:15.304Z,29.23
2022-07-29T09:48:25.274Z,29.41
2022-07-29T09:53:37.943Z,30.17
2022-07-29T09:58:39.190Z,30.98
2022-07-29T10:03:59.460Z,32.03
2022-07-29T10:09:19.746Z,33.49
2022-07-29T10:14:23.874Z,34.35
2022-07-29T10:19:25.308Z,33.77
2022-07-29T10:24:28.438Z,33.67
2022-07-29T10:29:31.573Z,33.90
2022-07-29T10:34:54.268Z,34.08
2022-07-29T10:40:33.402Z,34.85
2022-07-29T10:45:37.251Z,34.28
2022-07-29T10:51:04.455Z,34.83
2022-07-29T10:56:26.717Z,35.31
2022-07-29T11:01:37.222Z,35.10
2022-07-29T11:06:58.708Z,35.18
2022-07-29T11:12:01.027Z,33.93
2022-07-29T11:17:06.975Z,34.03
2022-07-29T11:22:10.173Z,33.54
2022-07-29T11:27:18.228Z,34.00
2022-07-29T11:32:24.183Z,34.61
2022-07-29T11:37:27.896Z,34.40
2022-07-29T11:42:35.328Z,33.84
2022-07-29T11:47:40.643Z,34.01
2022-07-29T11:52:49.581Z,34.13
2022-07-29T11:58:04.041Z,33.88
2022-07-29T12:03:11.271Z,34.73
2022-07-29T12:08:19.874Z,34.12
2022-07-29T12:13:22.227Z,34.69
2022-07-29T12:18:24.879Z,34.44
2022-07-29T12:23:29.288Z,34.24
2022-07-29T12:28:39.507Z,34.07
2022-07-29T12:33:41.484Z,34.26
2022-07-29T12:38:43.420Z,34.40
2022-07-29T12:44:03.476Z,33.65
2022-07-29T12:49:04.783Z,33.45
2022-07-29T12:54:11.189Z,32.90
2022-07-29T12:59:13.843Z,32.85
2022-07-29T13:04:36.773Z,32.34
2022-07-29T13:09:40.741Z,32.38
2022-07-29T13:14:51.422Z,32.59
2022-07-29T13:20:05.146Z,32.89
2022-07-29T13:25:10.264Z,32.76
2022-07-29T13:30:12.620Z,32.62
2022-07-29T13:35:14.523Z,32.95
2022-07-29T13:40:15.856Z,33.46
2022-07-29T13:45:17.651Z,33.17
2022-07-29T13:50:19.039Z,33.18
2022-07-29T13:55:20.799Z,33.23
2022-07-29T14:00:23.827Z,33.08
2022-07-29T14:05:24.969Z,32.92
2022-07-29T14:10:26.939Z,33.54
2022-07-29T14:15:28.213Z,33.96
2022-07-29T14:20:30.132Z,34.60
2022-07-29T14:25:31.365Z,35.06
2022-07-29T14:30:32.550Z,35.17
2022-07-29T14:35:33.721Z,35.38
2022-07-29T14:40:35.196Z,34.14
2022-07-29T14:45:36.414Z,33.32
2022-07-29T14:50:38.371Z,32.84
2022-07-29T14:55:40.707Z,33.19
2022-07-29T15:00:42.034Z,33.51
2022-07-29T15:05:43.602Z,33.99
2022-07-29T15:10:44.844Z,33.91
2022-07-29T15:15:46.107Z,33.78
2022-07-29T15:20:47.378Z,34.14
2022-07-29T15:25:48.529Z,34.56
2022-07-29T15:30:49.674Z,35.08
2022-07-29T15:35:50.793Z,35.17
2022-07-29T15:40:51.968Z,35.43
2022-07-29T15:46:11.914Z,35.79
2022-07-29T15:51:14.302Z,35.87
2022-07-29T15:56:15.636Z,35.94
2022-07-29T16:01:17.851Z,35.53
2022-07-29T16:06:19.628Z,35.25
2022-07-29T16:11:21.013Z,36.01
2022-07-29T16:16:22.366Z,35.85
2022-07-29T16:21:24.056Z,36.18
2022-07-29T16:26:25.195Z,35.84
2022-07-29T16:31:27.222Z,35.93
2022-07-29T16:36:28.591Z,36.41
2022-07-29T16:41:29.778Z,37.05
2022-07-29T16:46:31.075Z,37.27
2022-07-29T16:51:32.829Z,37.63
2022-07-29T16:56:34.318Z,37.87
2022-07-29T17:01:35.753Z,38.47
2022-07-29T17:06:39.060Z,38.62
2022-07-29T17:11:52.349Z,39.11
2022-07-29T17:17:02.014Z,39.04
2022-07-29T17:22:19.048Z,38.91
2022-07-29T17:27:20.885Z,38.97
2022-07-29T17:32:22.650Z,39.03
2022-07-29T17:37:23.782Z,39.36
2022-07-29T17:42:24.928Z,39.73
2022-07-29T17:47:26.057Z,40.18
2022-07-29T17:52:27.144Z,41.00
2022-07-29T17:57:28.513Z,41.72
2022-07-29T18:02:29.893Z,42.26
2022-07-29T18:07:31.311Z,42.55
2022-07-29T18:12:32.465Z,43.05
2022-07-29T18:17:52.670Z,43.58
2022-07-29T18:22:55.100Z,44.27
2022-07-29T18:28:00.361Z,44.68
2022-07-29T18:33:20.618Z,45.09
2022-07-29T18:38:22.540Z,46.09
2022-07-29T18:43:23.717Z,46.70
2022-07-29T18:48:24.918Z,47.45
2022-07-29T18:53:26.188Z,48.14
2022-07-29T18:58:27.509Z,48.28
2022-07-29T19:03:29.318Z,48.68
2022-07-29T19:08:30.478Z,49.29
2022-07-29T19:13:32.753Z,49.66
2022-07-29T19:18:33.894Z,50.15
2022-07-29T19:24:01.490Z,50.70
2022-07-29T19:28:56.649Z,51.67
2022-07-29T19:33:57.845Z,51.95
2022-07-29T19:38:59.884Z,52.55
2022-07-29T19:44:01.221Z,53.52
2022-07-29T19:49:05.677Z,54.78
2022-07-29T19:54:07.971Z,55.22
2022-07-29T19:59:10.602Z,55.32
2022-07-29T20:04:11.718Z,55.75
2022-07-29T20:09:16.980Z,56.09
2022-07-29T20:14:22.244Z,56.49
2022-07-29T20:19:23.734Z,56.61
2022-07-29T20:24:25.205Z,56.96
2022-07-29T20:29:26.325Z,57.19
2022-07-29T20:34:27.533Z,57.66
2022-07-29T20:39:29.493Z,58.08
2022-07-29T20:44:30.615Z,58.87
2022-07-29T20:49:31.786Z,59.02
2022-07-29T20:54:33.099Z,59.26
2022-07-29T20:59:34.219Z,59.55
2022-07-29T21:04:36.360Z,59.84
2022-07-29T21:09:37.525Z,59.86
2022-07-29T21:14:38.953Z,60.13
2022-07-29T21:19:40.552Z,60.36
2022-07-29T21:24:41.724Z,60.58
2022-07-29T21:29:43.052Z,60.65
2022-07-29T21:34:44.229Z,61.22
2022-07-29T21:39:45.407Z,61.59
2022-07-29T21:44:46.884Z,61.89
2022-07-29T21:49:48.101Z,62.11
2022-07-29T21:54:51.066Z,62.28
2022-07-29T21:59:52.375Z,62.81
2022-07-29T22:04:53.566Z,62.97
2022-07-29T22:09:55.026Z,63.53
2022-07-29T22:14:56.493Z,63.67
2022-07-29T22:19:57.968Z,64.09
2022-07-29T22:24:59.096Z,64.45
2022-07-29T22:30:00.165Z,64.88
2022-07-29T22:35:01.778Z,65.00
2022-07-29T22:40:04.078Z,65.18
2022-07-29T22:45:05.656Z,65.33
2022-07-29T22:50:07.204Z,65.48
2022-07-29T22:55:08.823Z,65.44
2022-07-29T23:00:11.594Z,65.61
2022-07-29T23:05:14.852Z,65.66
2022-07-29T23:10:15.944Z,66.19
2022-07-29T23:15:17.086Z,66.23
2022-07-29T23:20:19.348Z,66.79
2022-07-29T23:25:20.523Z,67.23
2022-07-29T23:30:21.735Z,67.57
2022-07-29T23:35:22.882Z,67.94
2022-07-29T23:40:24.093Z,68.02
2022-07-29T23:45:39.970Z,67.82
2022-07-29T23:50:46.227Z,67.82
2022-07-29T23:55:47.255Z,68.05
